Time;durP1;ratioP1;P1;durP2;ratioP2;P2;SDS_P1;SDS_P2;PMS_P1;PMS_P2;Temp;Humidity;BMP_temperature;BMP_pressure;BME280_temperature;BME280_humidity;BME280_pressure;Samples;Min_cycle;Max_cycle;Signal;HPM_P1;HPM_P2
2022/11/22 00:00:09;;;;;;;13.87;6.70;;;4.90;63.50;;;;;;5085098;27;46417;-71
2022/11/22 00:02:35;;;;;;;5.77;3.03;;;5.00;63.50;;;;;;5087091;27;46653;-71
2022/11/22 00:05:02;;;;;;;3.83;2.20;;;5.00;62.40;;;;;;5090034;27;47337;-72
2022/11/22 00:07:28;;;;;;;2.70;1.80;;;5.00;63.40;;;;;;5083800;27;47114;-71
2022/11/22 00:09:54;;;;;;;3.50;2.10;;;5.10;63.50;;;;;;5084614;27;46489;-72
2022/11/22 00:12:19;;;;;;;2.90;2.03;;;5.10;63.60;;;;;;5085151;27;46638;-71
2022/11/22 00:14:45;;;;;;;2.73;2.20;;;5.10;63.60;;;;;;5086919;27;46443;-70
2022/11/22 00:17:11;;;;;;;6.27;3.20;;;;;;;;;;5087047;27;45873;-71
2022/11/22 00:19:38;;;;;;;4.10;2.40;;;5.10;62.70;;;;;;5087343;27;46509;-71
2022/11/22 00:22:04;;;;;;;6.03;3.60;;;5.10;63.70;;;;;;5087789;27;46471;-70
2022/11/22 00:24:30;;;;;;;5.37;3.20;;;5.20;62.70;;;;;;5080895;27;47265;-71
2022/11/22 00:26:56;;;;;;;5.03;3.20;;;5.20;63.80;;;;;;5089084;27;46519;-70
2022/11/22 00:29:21;;;;;;;4.20;2.47;;;5.20;63.60;;;;;;5085909;27;46376;-72
2022/11/22 00:31:47;;;;;;;7.70;3.10;;;5.30;63.50;;;;;;5087514;27;45937;-70
2022/11/22 00:34:12;;;;;;;3.50;2.30;;;5.30;63.50;;;;;;5083502;27;48361;-70
2022/11/22 00:36:38;;;;;;;11.23;3.00;;;5.30;63.50;;;;;;5088001;27;46421;-71
2022/11/22 00:39:03;;;;;;;4.03;2.70;;;5.30;63.50;;;;;;5087235;27;45883;-70
2022/11/22 00:41:29;;;;;;;4.90;2.70;;;5.40;63.40;;;;;;5088557;27;46360;-71
2022/11/22 00:43:55;;;;;;;3.20;2.60;;;5.40;62.10;;;;;;5085064;27;47278;-72
2022/11/22 00:46:20;;;;;;;5.80;2.90;;;5.40;63.10;;;;;;5085600;27;46575;-71
2022/11/22 00:48:46;;;;;;;3.87;2.60;;;5.50;63.20;;;;;;5089299;27;45932;-72
2022/11/22 00:51:11;;;;;;;4.23;2.80;;;5.50;63.20;;;;;;5085698;27;46687;-71
2022/11/22 00:53:37;;;;;;;5.47;2.87;;;5.60;62.30;;;;;;5085993;27;47281;-69
2022/11/22 00:56:03;;;;;;;4.50;3.03;;;5.60;63.40;;;;;;5079165;27;46487;-70
2022/11/22 00:58:28;;;;;;;5.87;2.90;;;5.60;63.40;;;;;;5089014;27;46496;-70
2022/11/22 01:00:54;;;;;;;4.23;2.67;;;5.60;63.40;;;;;;5086276;27;46491;-70
2022/11/22 01:03:19;;;;;;;3.73;2.70;;;5.60;63.40;;;;;;5087918;27;47388;-71
2022/11/22 01:05:45;;;;;;;4.23;2.60;;;5.70;62.40;;;;;;5086718;27;46436;-72
2022/11/22 01:08:11;;;;;;;6.40;3.13;;;5.70;63.50;;;;;;5090450;27;46728;-71
2022/11/22 01:10:37;;;;;;;5.03;2.57;;;5.70;63.50;;;;;;5082406;27;46482;-70
2022/11/22 01:13:03;;;;;;;7.33;2.93;;;5.70;63.70;;;;;;5088191;27;48161;-71
2022/11/22 01:15:30;;;;;;;5.50;3.07;;;5.70;62.60;;;;;;5085817;27;46417;-69
2022/11/22 01:17:55;;;;;;;5.10;3.10;;;5.80;63.60;;;;;;5085875;27;46455;-71
2022/11/22 01:20:21;;;;;;;6.87;3.00;;;5.80;63.60;;;;;;5087355;27;46670;-71
2022/11/22 01:22:47;;;;;;;4.40;2.10;;;5.90;63.80;;;;;;5084726;27;46316;-70
2022/11/22 01:25:13;;;;;;;5.00;2.77;;;5.90;62.60;;;;;;5084195;27;45928;-70
2022/11/22 01:27:39;;;;;;;3.97;2.50;;;5.90;63.70;;;;;;5086631;27;46460;-70
2022/11/22 01:30:05;;;;;;;3.80;2.47;;;5.90;63.80;;;;;;5085562;27;46446;-70
2022/11/22 01:32:31;;;;;;;5.00;2.90;;;5.90;65.10;;;;;;5094341;27;46996;-72
2022/11/22 01:34:56;;;;;;;6.87;3.30;;;5.90;63.10;;;;;;5084408;27;46631;-70
2022/11/22 01:37:22;;;;;;;6.63;3.13;;;6.00;64.30;;;;;;5091346;27;46311;-70
2022/11/22 01:39:48;;;;;;;9.23;2.67;;;6.00;64.50;;;;;;5088854;27;45875;-70
2022/11/22 01:42:14;;;;;;;6.30;2.77;;;5.90;64.70;;;;;;5087030;27;46380;-71
2022/11/22 01:44:41;;;;;;;3.70;2.70;;;5.90;63.60;;;;;;5085755;27;46358;-71
2022/11/22 01:47:10;;;;;;;9.03;3.23;;;6.00;64.80;;;;;;5084017;27;46504;-70
2022/11/22 01:49:45;;;;;;;6.97;2.40;;;6.00;64.70;;;;;;5088738;27;46855;-70
2022/11/22 01:52:20;;;;;;;4.63;2.53;;;6.00;64.70;;;;;;5087982;27;47169;-71
2022/11/22 01:54:59;;;;;;;6.20;2.57;;;6.00;63.70;;;;;;5088339;27;46528;-72
2022/11/22 01:57:32;;;;;;;4.67;2.30;;;6.00;65.00;;;;;;5078323;27;46367;-71
2022/11/22 02:00:10;;;;;;;4.30;2.57;;;6.00;65.30;;;;;;5081337;27;46452;-70
2022/11/22 02:02:36;;;;;;;5.50;2.57;;;6.00;65.30;;;;;;5078648;27;48013;-72
2022/11/22 02:05:07;;;;;;;3.47;2.67;;;6.00;65.30;;;;;;5083071;27;46460;-72
2022/11/22 02:07:45;;;;;;;3.10;1.93;;;6.10;65.20;;;;;;5085300;27;46372;-71
2022/11/22 02:10:11;;;;;;;3.40;2.20;;;6.20;65.00;;;;;;5088493;27;46417;-71
2022/11/22 02:12:37;;;;;;;5.07;2.13;;;6.30;64.80;;;;;;5088018;27;46689;-72
2022/11/22 02:15:03;;;;;;;4.57;2.40;;;6.30;63.80;;;;;;5082125;27;46667;-71
2022/11/22 02:17:28;;;;;;;3.70;2.50;;;6.30;64.80;;;;;;5088034;27;46472;-73
2022/11/22 02:19:54;;;;;;;4.37;2.80;;;6.30;64.80;;;;;;5085939;27;46861;-71
2022/11/22 02:22:56;;;;;;;3.63;1.90;;;6.40;65.20;;;;;;5082164;27;48052;-72
2022/11/22 02:25:35;;;;;;;1.97;1.43;;;6.40;64.10;;;;;;5087383;27;46412;-72
2022/11/22 02:28:00;;;;;;;4.43;1.90;;;6.50;65.20;;;;;;5082883;27;46488;-73
2022/11/22 02:30:26;;;;;;;5.50;2.40;;;6.50;65.30;;;;;;5082841;27;46514;-72
2022/11/22 02:32:51;;;;;;;4.10;1.90;;;6.50;65.30;;;;;;5085545;27;46334;-74
2022/11/22 02:35:26;;;;;;;6.47;2.00;;;6.60;64.20;;;;;;5081369;27;46286;-72
2022/11/22 02:38:00;;;;;;;5.67;1.83;;;6.60;65.20;;;;;;5085734;27;46492;-72
2022/11/22 02:40:31;;;;;;;2.30;1.53;;;6.60;65.30;;;;;;5084166;27;46357;-73
2022/11/22 02:43:06;;;;;;;3.50;1.73;;;6.60;65.50;;;;;;5118983;27;46745;-74
2022/11/22 02:45:31;;;;;;;2.80;1.50;;;6.60;65.80;;;;;;5083426;27;46722;-71
2022/11/22 02:48:08;;;;;;;4.97;1.80;;;6.60;65.80;;;;;;5086408;27;46508;-74
2022/11/22 02:50:34;;;;;;;2.50;1.40;;;6.70;65.80;;;;;;5080873;27;46457;-71
2022/11/22 02:53:00;;;;;;;3.93;1.60;;;6.80;65.80;;;;;;5083910;27;46515;-72
2022/11/22 02:55:25;;;;;;;4.07;1.27;;;6.80;65.60;;;;;;5084373;27;46759;-72
2022/11/22 02:57:51;;;;;;;3.53;1.47;;;6.90;65.80;;;;;;5083464;27;45942;-73
2022/11/22 03:00:17;;;;;;;2.80;1.40;;;6.90;65.80;;;;;;5087984;27;46468;-72
2022/11/22 03:02:42;;;;;;;1.73;1.20;;;7.00;65.50;;;;;;5083574;27;47335;-73
2022/11/22 03:05:08;;;;;;;5.27;1.23;;;7.00;65.70;;;;;;5079362;27;46419;-72
2022/11/22 03:07:34;;;;;;;1.80;1.27;;;7.00;67.10;;;;;;5085289;27;46384;-73
2022/11/22 03:09:59;;;;;;;3.47;1.40;;;7.10;66.10;;;;;;5085727;27;46493;-71
2022/11/22 03:12:25;;;;;;;7.50;1.10;;;7.10;66.10;;;;;;5080790;27;46715;-72
2022/11/22 03:14:50;;;;;;;2.47;1.40;;;7.20;65.10;;;;;;5084062;27;46413;-71
2022/11/22 03:17:16;;;;;;;2.50;1.17;;;7.20;66.10;;;;;;5082712;27;46703;-71
2022/11/22 03:19:42;;;;;;;2.50;1.40;;;7.20;66.20;;;;;;5088911;27;45821;-70
2022/11/22 03:22:07;;;;;;;2.00;1.30;;;7.20;66.40;;;;;;5086918;27;46422;-71
2022/11/22 03:24:33;;;;;;;2.07;1.20;;;7.20;66.50;;;;;;5086251;27;45947;-70
2022/11/22 03:26:58;;;;;;;4.50;1.43;;;7.20;66.60;;;;;;5084147;27;46486;-70
2022/11/22 03:29:24;;;;;;;2.80;1.33;;;7.20;66.60;;;;;;5086076;27;46423;-71
2022/11/22 03:31:50;;;;;;;3.17;1.17;;;7.20;66.80;;;;;;5087172;27;47192;-70
2022/11/22 03:34:16;;;;;;;2.60;1.70;;;7.30;65.70;;;;;;5085653;27;46723;-70
2022/11/22 03:36:42;;;;;;;2.07;1.00;;;7.40;66.80;;;;;;5084618;27;46447;-73
2022/11/22 03:39:07;;;;;;;2.30;1.30;;;7.30;66.60;;;;;;5080482;27;46387;-73
2022/11/22 03:41:33;;;;;;;2.27;1.37;;;7.40;66.60;;;;;;5083886;27;46597;-72
2022/11/22 03:43:59;;;;;;;3.03;1.47;;;7.40;65.70;;;;;;5085178;27;46371;-71
2022/11/22 03:46:24;;;;;;;4.07;1.50;;;7.40;67.70;;;;;;5088065;27;46402;-73
2022/11/22 03:48:50;;;;;;;5.10;1.60;;;7.40;66.70;;;;;;5086525;27;46719;-71
2022/11/22 03:51:15;;;;;;;3.90;1.10;;;7.50;66.80;;;;;;5089244;27;46427;-72
2022/11/22 03:53:41;;;;;;;2.30;1.10;;;7.40;65.90;;;;;;5088074;27;46496;-72
2022/11/22 03:56:07;;;;;;;1.83;1.20;;;7.50;67.00;;;;;;5090200;27;46562;-71
2022/11/22 04:01:54;;;;;;;1.90;1.10;;;7.40;67.00;;;;;;5085759;27;46419;-71
2022/11/22 04:04:20;;;;;;;2.00;1.40;;;7.40;67.10;;;;;;5089101;27;45856;-71
2022/11/22 04:06:46;;;;;;;4.73;1.53;;;7.50;67.10;;;;;;5088210;27;46333;-71
2022/11/22 04:09:11;;;;;;;4.47;1.30;;;7.50;67.20;;;;;;5086496;27;47342;-72
2022/11/22 04:11:37;;;;;;;2.50;1.60;;;7.50;67.10;;;;;;5088991;27;47746;-72
2022/11/22 04:16:47;;;;;;;3.37;1.80;;;7.50;67.10;;;;;;5081623;27;46759;-74
2022/11/22 04:19:12;;;;;;;5.40;1.90;;;7.50;68.10;;;;;;5088270;27;46292;-73
2022/11/22 04:21:38;;;;;;;6.63;1.50;;;7.50;65.70;;;;;;5091654;27;47537;-72
2022/11/22 04:26:54;;;;;;;4.87;1.50;;;7.60;66.60;;;;;;5086150;27;46462;-71
2022/11/22 04:29:20;;;;;;;4.33;1.70;;;7.60;66.50;;;;;;5085866;27;46492;-74
2022/11/22 04:34:31;;;;;;;5.30;2.30;;;7.60;66.80;;;;;;5090524;27;46455;-73
2022/11/22 04:36:57;;;;;;;4.20;1.80;;;7.60;66.70;;;;;;5088464;27;46909;-72
2022/11/22 04:39:23;;;;;;;5.23;2.57;;;7.60;66.80;;;;;;5086726;27;46399;-73
2022/11/22 04:44:39;;;;;;;4.43;2.20;;;7.60;67.00;;;;;;5086466;27;46432;-71
2022/11/22 04:47:08;;;;;;;4.57;2.70;;;7.60;67.10;;;;;;5085245;27;46341;-68
2022/11/22 04:49:34;;;;;;;3.93;2.10;;;7.50;67.10;;;;;;5086169;27;46456;-66
2022/11/22 04:54:49;;;;;;;4.40;2.03;;;7.50;67.00;;;;;;5086586;27;46365;-67
2022/11/22 04:57:14;;;;;;;7.27;2.63;;;7.50;67.00;;;;;;5086915;27;46263;-67
2022/11/22 04:59:40;;;;;;;6.33;2.80;;;7.60;67.00;;;;;;5085362;27;46719;-66
2022/11/22 05:02:06;;;;;;;6.83;2.40;;;7.60;66.90;;;;;;5086816;27;47509;-67
2022/11/22 05:04:31;;;;;;;5.03;2.50;;;7.50;65.90;;;;;;5085539;27;46368;-68
2022/11/22 05:06:57;;;;;;;4.63;2.50;;;7.60;67.10;;;;;;5086988;27;46668;-66
2022/11/22 05:09:22;;;;;;;6.53;2.50;;;7.60;67.00;;;;;;5090542;27;46473;-67
2022/11/22 05:11:48;;;;;;;3.70;2.70;;;7.60;67.00;;;;;;5088712;27;47964;-66
2022/11/22 05:14:14;;;;;;;3.10;2.33;;;7.60;67.20;;;;;;5081295;27;46336;-68
2022/11/22 05:16:40;;;;;;;4.93;2.80;;;7.60;67.10;;;;;;5087734;27;46577;-67
2022/11/22 05:19:06;;;;;;;6.10;3.00;;;7.60;67.00;;;;;;5086378;27;46487;-66
2022/11/22 05:21:34;;;;;;;4.63;2.70;;;7.60;67.00;;;;;;5087995;27;47612;-67
2022/11/22 05:24:00;;;;;;;5.50;3.00;;;7.60;66.00;;;;;;5086005;27;46389;-67
2022/11/22 05:26:31;;;;;;;5.33;2.70;;;7.60;66.90;;;;;;5087326;27;46451;-67
2022/11/22 05:29:01;;;;;;;4.37;3.40;;;7.60;67.00;;;;;;5080806;27;46938;-68
2022/11/22 05:31:27;;;;;;;5.10;3.90;;;7.60;67.00;;;;;;5082243;27;46395;-67
2022/11/22 05:33:54;;;;;;;6.70;3.00;;;7.60;66.20;;;;;;5085630;27;46427;-67
2022/11/22 05:36:21;;;;;;;6.00;3.23;;;7.60;67.10;;;;;;5085182;27;46794;-68
2022/11/22 05:38:47;;;;;;;5.97;3.87;;;7.50;67.00;;;;;;5089168;27;46442;-66
2022/11/22 05:41:14;;;;;;;50.30;21.30;;;7.50;67.20;;;;;;5089332;27;48224;-66
2022/11/22 05:43:40;;;;;;;14.77;7.17;;;7.70;66.30;;;;;;5085124;27;46353;-66
2022/11/22 05:46:15;;;;;;;23.23;9.80;;;7.70;67.30;;;;;;5084133;27;46668;-66
2022/11/22 05:48:43;;;;;;;12.17;7.10;;;7.70;67.20;;;;;;5087334;27;46447;-68
2022/11/22 05:51:14;;;;;;;7.80;4.53;;;7.70;67.00;;;;;;5085695;27;46667;-66
2022/11/22 05:53:41;;;;;;;7.20;4.00;;;7.70;66.20;;;;;;5087620;27;46402;-68
2022/11/22 05:56:12;;;;;;;5.87;3.67;;;7.70;67.20;;;;;;5084244;27;46511;-67
2022/11/22 05:58:38;;;;;;;7.90;4.10;;;7.70;67.20;;;;;;5085912;27;46390;-67
2022/11/22 06:01:05;;;;;;;7.30;4.80;;;7.70;67.30;;;;;;5087779;27;46693;-66
2022/11/22 06:03:30;;;;;;;13.17;4.97;;;7.60;67.50;;;;;;5087460;27;46227;-66
2022/11/22 06:05:56;;;;;;;12.90;6.97;;;7.60;67.70;;;;;;5083667;27;46415;-67
2022/11/22 06:08:22;;;;;;;13.90;7.57;;;7.50;67.80;;;;;;5084396;27;46642;-68
2022/11/22 06:10:47;;;;;;;7.10;4.50;;;7.50;67.90;;;;;;5086165;27;46479;-67
2022/11/22 06:13:13;;;;;;;8.03;4.43;;;7.60;67.90;;;;;;5086956;27;46576;-68
2022/11/22 06:15:39;;;;;;;9.47;5.83;;;7.50;67.90;;;;;;5086397;27;46398;-67
2022/11/22 06:18:04;;;;;;;11.50;4.50;;;7.60;67.80;;;;;;5085735;27;46430;-66
2022/11/22 06:20:30;;;;;;;18.27;9.00;;;7.60;67.90;;;;;;5082835;27;46547;-66
2022/11/22 06:22:57;;;;;;;11.47;6.10;;;7.60;68.10;;;;;;5084283;27;46644;-68
2022/11/22 06:25:23;;;;;;;6.90;4.20;;;7.60;67.00;;;;;;5084154;27;46485;-67
2022/11/22 06:27:49;;;;;;;9.80;4.80;;;7.50;68.00;;;;;;5083281;27;46643;-66
2022/11/22 06:30:15;;;;;;;14.33;7.97;;;7.50;68.10;;;;;;5088898;27;46332;-67
2022/11/22 06:32:40;;;;;;;9.00;5.90;;;7.50;68.10;;;;;;5086247;27;46869;-66
2022/11/22 06:35:06;;;;;;;10.77;6.03;;;7.60;67.10;;;;;;5085404;27;46439;-67
2022/11/22 06:37:32;;;;;;;8.90;5.50;;;7.60;68.10;;;;;;5088067;27;46584;-66
2022/11/22 06:39:57;;;;;;;11.10;5.70;;;7.50;68.10;;;;;;5083672;27;46500;-65
2022/11/22 06:42:23;;;;;;;10.53;5.77;;;7.60;68.20;;;;;;5085463;27;46529;-68
2022/11/22 06:44:49;;;;;;;8.63;6.37;;;7.60;67.30;;;;;;5086908;27;46562;-68
2022/11/22 06:47:16;;;;;;;21.20;6.07;;;7.60;68.40;;;;;;5086258;27;46389;-67
2022/11/22 06:49:42;;;;;;;10.67;6.33;;;7.60;68.50;;;;;;5084379;27;47651;-66
2022/11/22 06:52:08;;;;;;;12.20;5.00;;;7.50;68.50;;;;;;5087510;27;46394;-67
2022/11/22 06:54:34;;;;;;;8.90;5.17;;;7.50;68.50;;;;;;5086338;27;46428;-68
2022/11/22 06:56:59;;;;;;;14.37;6.57;;;7.60;68.60;;;;;;5086451;27;46532;-69
2022/11/22 06:59:25;;;;;;;10.23;5.43;;;7.50;67.60;;;;;;5087168;27;47288;-67
2022/11/22 07:01:50;;;;;;;6.37;3.90;;;7.50;68.50;;;;;;5091918;27;46304;-67
2022/11/22 07:04:16;;;;;;;16.50;6.13;;;7.60;68.50;;;;;;5087758;27;46385;-67
2022/11/22 07:06:43;;;;;;;6.83;4.53;;;7.60;68.50;;;;;;5085069;27;45996;-66
2022/11/22 07:09:10;;;;;;;9.50;5.93;;;7.60;68.50;;;;;;5089722;27;48805;-68
2022/11/22 07:11:36;;;;;;;10.13;5.60;;;7.50;68.50;;;;;;5091585;27;46380;-68
2022/11/22 07:14:04;;;;;;;12.20;6.20;;;7.50;67.60;;;;;;5087523;27;46653;-65
2022/11/22 07:16:29;;;;;;;18.70;10.50;;;7.50;68.80;;;;;;5091120;27;46368;-66
2022/11/22 07:18:57;;;;;;;14.10;9.20;;;7.50;68.70;;;;;;5088955;27;46334;-67
2022/11/22 07:21:23;;;;;;;8.53;5.50;;;7.10;68.30;;;;;;5089476;27;45837;-68
2022/11/22 07:23:51;;;;;;;8.07;5.50;;;7.60;67.70;;;;;;5082179;27;46729;-65
2022/11/22 07:26:19;;;;;;;9.70;5.50;;;7.60;68.70;;;;;;5086589;27;47235;-66
2022/11/22 07:28:45;;;;;;;8.40;4.83;;;7.50;68.80;;;;;;5088906;27;48552;-66
2022/11/22 07:31:12;;;;;;;8.93;5.30;;;7.60;68.80;;;;;;5084833;27;46443;-66
2022/11/22 07:33:38;;;;;;;7.03;4.20;;;7.60;67.60;;;;;;5090404;27;46004;-66
2022/11/22 07:36:09;;;;;;;10.23;5.30;;;7.60;68.80;;;;;;5085870;27;46651;-66
2022/11/22 07:38:35;;;;;;;5.87;4.23;;;7.60;68.70;;;;;;5088682;27;46943;-67
2022/11/22 07:41:01;;;;;;;5.77;4.13;;;7.70;68.60;;;;;;5090113;27;46411;-66
2022/11/22 07:43:27;;;;;;;11.00;4.90;;;7.70;68.70;;;;;;5084346;27;46829;-66
2022/11/22 07:45:52;;;;;;;10.93;4.80;;;7.60;68.90;;;;;;5087715;27;46422;-66
2022/11/22 07:48:18;;;;;;;10.20;4.80;;;7.70;68.80;;;;;;5089425;27;47623;-67
2022/11/22 07:50:44;;;;;;;10.10;4.27;;;7.70;68.80;;;;;;5090439;27;46700;-66
2022/11/22 07:53:09;;;;;;;9.93;4.23;;;7.70;68.50;;;;;;5084366;27;46349;-66
2022/11/22 07:55:35;;;;;;;9.60;4.60;;;7.80;68.40;;;;;;5087824;27;46474;-67
2022/11/22 07:58:01;;;;;;;13.13;4.60;;;7.80;68.40;;;;;;5088564;27;46556;-66
2022/11/22 08:00:27;;;;;;;8.37;4.83;;;7.80;68.30;;;;;;5091729;27;46470;-66
2022/11/22 08:02:53;;;;;;;11.47;4.57;;;7.80;68.40;;;;;;5089245;27;46394;-66
2022/11/22 08:05:19;;;;;;;7.50;4.47;;;7.90;67.40;;;;;;5085731;27;46311;-65
2022/11/22 08:07:47;;;;;;;8.13;4.40;;;8.00;68.70;;;;;;5088840;27;47893;-67
2022/11/22 08:10:12;;;;;;;9.33;4.33;;;8.10;68.20;;;;;;5084179;27;45930;-67
2022/11/22 08:12:38;;;;;;;10.07;4.63;;;8.20;68.10;;;;;;5087984;27;46427;-67
2022/11/22 08:15:04;;;;;;;11.10;5.00;;;8.30;67.80;;;;;;5083078;27;45936;-66
2022/11/22 08:17:30;;;;;;;16.63;5.00;;;8.40;67.50;;;;;;5088299;27;46536;-66
2022/11/22 08:19:55;;;;;;;15.40;5.27;;;8.50;67.10;;;;;;5089459;27;46340;-66
2022/11/22 08:22:21;;;;;;;7.80;3.83;;;8.60;67.30;;;;;;5088590;27;46521;-67
2022/11/22 08:24:47;;;;;;;11.07;3.80;;;8.70;67.00;;;;;;5084352;27;46656;-66
2022/11/22 08:27:12;;;;;;;5.23;3.50;;;8.70;66.90;;;;;;5082159;27;46519;-66
2022/11/22 08:29:38;;;;;;;9.90;4.03;;;8.90;66.60;;;;;;5084367;27;46729;-66
2022/11/22 08:32:03;;;;;;;7.43;3.67;;;9.00;66.60;;;;;;5084845;27;46304;-66
2022/11/22 08:34:29;;;;;;;11.83;3.93;;;9.00;66.40;;;;;;5087095;27;46407;-65
2022/11/22 08:36:54;;;;;;;6.53;3.90;;;9.10;66.30;;;;;;5083698;27;47499;-66
2022/11/22 08:39:21;;;;;;;12.43;4.47;;;9.20;66.00;;;;;;5086483;27;46540;-66
2022/11/22 08:41:47;;;;;;;12.10;3.70;;;9.30;65.80;;;;;;5084616;27;46482;-68
2022/11/22 08:44:12;;;;;;;5.70;3.40;;;9.30;66.10;;;;;;5084046;27;45955;-66
2022/11/22 08:46:38;;;;;;;6.40;3.30;;;9.20;66.10;;;;;;5084027;27;46538;-65
2022/11/22 08:49:05;;;;;;;8.37;3.60;;;9.20;66.20;;;;;;5088825;27;46527;-67
2022/11/22 08:51:31;;;;;;;7.50;3.63;;;9.10;66.40;;;;;;5088849;27;46767;-66
2022/11/22 08:53:57;;;;;;;9.70;3.30;;;9.10;65.50;;;;;;5088075;27;46679;-65
2022/11/22 08:56:22;;;;;;;7.83;4.97;;;9.10;65.30;;;;;;5088844;27;46469;-65
2022/11/22 08:58:48;;;;;;;11.23;6.90;;;9.10;66.50;;;;;;5086321;27;45855;-69
2022/11/22 09:01:15;;;;;;;10.77;4.60;;;9.00;66.70;;;;;;5090918;27;46861;-67
2022/11/22 09:03:42;;;;;;;14.47;5.70;;;9.10;65.40;;;;;;5086082;27;46558;-65
2022/11/22 09:06:11;;;;;;;9.93;4.10;;;9.10;66.40;;;;;;5086741;27;46697;-66
2022/11/22 09:08:37;;;;;;;10.90;3.90;;;9.20;65.10;;;;;;5085892;27;46499;-68
2022/11/22 09:11:12;;;;;;;16.60;6.80;;;9.30;66.10;;;;;;5089564;27;46408;-67
2022/11/22 09:13:38;;;;;;;8.97;3.90;;;9.30;65.80;;;;;;5086134;27;46463;-67
2022/11/22 09:16:12;;;;;;;8.73;3.90;;;9.40;64.70;;;;;;5088585;27;47639;-68
2022/11/22 09:18:38;;;;;;;13.50;4.50;;;9.40;65.70;;;;;;5085202;27;46376;-67
2022/11/22 09:21:07;;;;;;;7.53;3.53;;;9.40;65.50;;;;;;5087168;27;46398;-66
2022/11/22 09:23:33;;;;;;;56.73;27.33;;;9.40;65.50;;;;;;5088253;27;46605;-66
2022/11/22 09:26:01;;;;;;;10.97;5.50;;;9.40;64.50;;;;;;5087261;27;46530;-68
2022/11/22 09:28:27;;;;;;;12.40;3.60;;;9.40;65.60;;;;;;5084284;27;46578;-67
2022/11/22 09:31:20;;;;;;;9.37;3.03;;;9.40;65.30;;;;;;5092777;27;46591;-66
2022/11/22 09:33:48;;;;;;;12.27;4.20;;;9.30;64.60;;;;;;5080033;27;46412;-66
2022/11/22 09:36:19;;;;;;;17.80;5.00;;;9.20;65.50;;;;;;5085079;27;46379;-67
2022/11/22 09:38:45;;;;;;;14.70;2.90;;;9.30;65.40;;;;;;5087887;27;46527;-66
2022/11/22 09:41:35;;;;;;;9.97;4.00;;;9.20;65.30;;;;;;5083977;27;46442;-67
2022/11/22 09:44:28;;;;;;;10.37;3.37;;;9.20;65.40;;;;;;5080790;27;46542;-66
2022/11/22 09:47:02;;;;;;;13.87;3.37;;;9.10;65.40;;;;;;5082821;27;46415;-68
2022/11/22 09:49:33;;;;;;;9.10;3.90;;;9.10;65.50;;;;;;5085643;27;46852;-66
2022/11/22 09:52:22;;;;;;;7.47;2.73;;;9.00;65.60;;;;;;5083959;27;46462;-66
2022/11/22 09:54:55;;;;;;;11.00;4.10;;;9.10;64.40;;;;;;5086008;27;46660;-66
2022/11/22 09:57:36;;;;;;;10.43;4.10;;;9.00;65.50;;;;;;5085040;27;47296;-67
2022/11/22 10:00:15;;;;;;;7.37;3.30;;;9.00;65.30;;;;;;5087041;27;46422;-66
2022/11/22 10:02:47;;;;;;;13.10;4.73;;;9.00;65.60;;;;;;5084140;27;46606;-68
2022/11/22 10:05:19;;;;;;;7.73;3.23;;;9.80;65.10;;;;;;5079611;27;45890;-66
2022/11/22 10:08:00;;;;;;;11.10;3.60;;;9.00;65.50;;;;;;5086131;27;46680;-66
2022/11/22 10:10:34;;;;;;;16.23;3.33;;;9.00;65.40;;;;;;5083367;27;46801;-67
2022/11/22 10:13:10;;;;;;;29.53;10.93;;;9.00;65.50;;;;;;5086111;27;46337;-66
2022/11/22 10:15:57;;;;;;;10.97;3.70;;;8.90;65.50;;;;;;5087411;27;46577;-67
2022/11/22 10:18:41;;;;;;;6.53;3.10;;;9.00;65.50;;;;;;5087545;27;46476;-66
2022/11/22 10:21:12;;;;;;;14.53;5.10;;;9.00;65.40;;;;;;5084758;27;46460;-66
2022/11/22 10:23:42;;;;;;;8.90;5.20;;;9.00;65.20;;;;;;5084951;27;46565;-67
2022/11/22 10:26:28;;;;;;;14.70;4.40;;;9.00;63.70;;;;;;5084456;27;46400;-66
2022/11/22 10:29:31;;;;;;;6.93;2.57;;;9.10;64.70;;;;;;5082776;27;47425;-66
2022/11/22 10:32:18;;;;;;;11.87;3.73;;;9.20;64.70;;;;;;5090029;27;46498;-66
2022/11/22 10:34:59;;;;;;;19.20;5.50;;;9.20;64.70;;;;;;5088299;27;46078;-66
2022/11/22 10:37:59;;;;;;;12.00;2.93;;;9.10;64.60;;;;;;5090464;27;46467;-67
2022/11/22 10:40:55;;;;;;;14.90;3.30;;;9.30;64.70;;;;;;5088675;27;46791;-66
2022/11/22 10:43:39;;;;;;;9.80;3.17;;;9.30;64.80;;;;;;5088322;27;46996;-67
2022/11/22 10:46:12;;;;;;;11.57;3.70;;;9.30;64.70;;;;;;5087094;27;46369;-65
2022/11/22 10:48:52;;;;;;;9.07;2.37;;;9.40;64.90;;;;;;5099944;27;46548;-67
2022/11/22 10:51:40;;;;;;;10.07;4.00;;;9.40;64.60;;;;;;5083865;27;46329;-65
2022/11/22 10:54:24;;;;;;;17.53;3.30;;;9.40;64.50;;;;;;5088516;27;46469;-68
2022/11/22 10:57:05;;;;;;;10.63;3.10;;;9.60;64.10;;;;;;5090250;27;46653;-66
2022/11/22 11:00:01;;;;;;;8.43;3.30;;;9.70;63.90;;;;;;5085905;27;46555;-66
2022/11/22 11:02:36;;;;;;;10.47;3.63;;;9.70;63.90;;;;;;5087273;27;46690;-66
2022/11/22 11:05:06;;;;;;;18.50;3.37;;;9.80;62.50;;;;;;5088825;27;46661;-66
2022/11/22 11:07:33;;;;;;;14.20;4.60;;;9.80;63.60;;;;;;5089098;27;46558;-68
2022/11/22 11:10:03;;;;;;;10.70;3.10;;;9.80;63.60;;;;;;5083168;27;46688;-66
2022/11/22 11:12:45;;;;;;;7.33;2.40;;;9.70;63.40;;;;;;5085838;27;47914;-66
2022/11/22 11:15:22;;;;;;;41.57;19.37;;;9.60;62.70;;;;;;5086295;27;46638;-68
2022/11/22 11:17:53;;;;;;;14.73;3.63;;;9.60;63.80;;;;;;5085963;27;46626;-67
2022/11/22 11:20:34;;;;;;;9.07;2.20;;;9.60;63.60;;;;;;5090154;27;46359;-68
2022/11/22 11:22:59;;;;;;;8.00;2.00;;;9.60;63.50;;;;;;5086833;27;46689;-65
2022/11/22 11:25:45;;;;;;;6.20;2.10;;;9.50;62.40;;;;;;5088704;27;46716;-67
2022/11/22 11:28:25;;;;;;;8.73;2.17;;;9.60;63.30;;;;;;5090180;27;46426;-65
2022/11/22 11:30:55;;;;;;;9.57;2.80;;;9.60;62.90;;;;;;5091012;27;46425;-66
2022/11/22 11:33:29;;;;;;;10.40;2.93;;;9.70;62.70;;;;;;5084328;27;47393;-66
2022/11/22 11:36:07;;;;;;;9.80;3.60;;;9.80;61.00;;;;;;5085138;27;46494;-68
2022/11/22 11:38:36;;;;;;;8.50;2.50;;;9.80;62.30;;;;;;5086234;27;46451;-69
2022/11/22 11:41:30;;;;;;;8.13;2.60;;;9.70;62.30;;;;;;5088758;27;46709;-65
2022/11/22 11:44:03;;;;;;;10.07;2.90;;;9.50;61.80;;;;;;5084989;27;47444;-66
2022/11/22 11:46:44;;;;;;;13.30;4.33;;;9.50;62.80;;;;;;5085937;27;46370;-66
2022/11/22 11:49:15;;;;;;;7.37;2.60;;;9.50;62.40;;;;;;5086196;27;46713;-66
2022/11/22 11:51:42;;;;;;;7.17;2.00;;;9.40;62.50;;;;;;5085815;27;45948;-66
2022/11/22 11:54:14;;;;;;;12.23;2.57;;;9.40;62.30;;;;;;5086748;27;47163;-65
2022/11/22 11:56:56;;;;;;;10.20;2.60;;;9.50;62.10;;;;;;5104577;27;46110;-66
2022/11/22 11:59:23;;;;;;;5.90;1.93;;;9.50;61.80;;;;;;5088538;27;46501;-66
2022/11/22 12:02:02;;;;;;;11.33;2.40;;;9.50;61.80;;;;;;5084967;27;46432;-66
2022/11/22 12:04:49;;;;;;;14.10;2.23;;;9.70;60.10;;;;;;5083917;27;46435;-68
2022/11/22 12:07:19;;;;;;;4.47;1.93;;;9.70;61.10;;;;;;5082341;27;45844;-66
2022/11/22 12:09:48;;;;;;;5.40;1.47;;;9.70;60.80;;;;;;5092100;27;46488;-67
2022/11/22 12:12:45;;;;;;;5.83;1.50;;;9.70;60.60;;;;;;5088183;27;46437;-66
2022/11/22 12:15:25;;;;;;;4.13;1.50;;;9.40;58.80;;;;;;5085246;27;46756;-66
2022/11/22 12:18:16;;;;;;;7.13;2.13;;;9.30;59.70;;;;;;5089102;27;45929;-66
2022/11/22 12:20:50;;;;;;;55.77;24.70;;;9.50;59.40;;;;;;5078540;27;46482;-66
2022/11/22 12:23:44;;;;;;;7.40;2.87;;;9.70;59.30;;;;;;5087168;27;46694;-66
2022/11/22 12:26:10;;;;;;;4.80;1.80;;;9.70;58.10;;;;;;5086833;27;46485;-66
2022/11/22 12:28:37;;;;;;;8.90;1.50;;;9.70;59.20;;;;;;5087018;27;46530;-65
2022/11/22 12:31:17;;;;;;;8.40;2.43;;;9.70;59.00;;;;;;5089952;27;46417;-68
2022/11/22 12:33:48;;;;;;;7.67;2.80;;;9.60;58.20;;;;;;5087103;27;46390;-65
2022/11/22 12:36:47;;;;;;;9.77;3.07;;;9.60;59.20;;;;;;5084260;27;46637;-66
2022/11/22 12:39:20;;;;;;;7.93;1.90;;;9.60;59.00;;;;;;5083443;27;46390;-65
2022/11/22 12:41:48;;;;;;;8.37;1.70;;;9.50;58.60;;;;;;5085490;27;46518;-66
2022/11/22 12:44:19;;;;;;;11.93;3.80;;;9.20;58.00;;;;;;5085460;27;45955;-67
2022/11/22 12:47:00;;;;;;;9.50;3.40;;;9.10;58.80;;;;;;5079996;27;46661;-67
2022/11/22 12:49:41;;;;;;;9.40;4.80;;;9.10;59.30;;;;;;5082689;27;46910;-68
2022/11/22 12:52:12;;;;;;;14.87;3.40;;;9.00;58.80;;;;;;5084653;27;46365;-68
2022/11/22 12:55:11;;;;;;;6.87;3.23;;;9.10;57.80;;;;;;5087204;27;46626;-66
2022/11/22 12:57:47;;;;;;;7.47;2.50;;;9.10;58.60;;;;;;5082920;27;47679;-66
2022/11/22 13:00:16;;;;;;;15.90;3.20;;;9.20;58.30;;;;;;5084656;27;46574;-66
2022/11/22 13:03:11;;;;;;;7.80;1.60;;;9.10;58.40;;;;;;5084675;27;45846;-66
2022/11/22 13:05:46;;;;;;;11.53;2.43;;;9.20;57.20;;;;;;5066418;27;46552;-64
2022/11/22 13:08:38;;;;;;;8.90;1.80;;;9.20;58.30;;;;;;5085207;27;46671;-67
2022/11/22 13:11:20;;;;;;;8.10;1.60;;;9.20;58.00;;;;;;5089910;27;46515;-66
2022/11/22 13:13:50;;;;;;;4.37;1.37;;;9.20;56.80;;;;;;5085302;27;45900;-65
2022/11/22 13:16:16;;;;;;;10.23;2.03;;;9.20;57.80;;;;;;5088505;27;46413;-66
2022/11/22 13:19:00;;;;;;;6.37;1.83;;;9.20;57.70;;;;;;5082884;27;46476;-67
2022/11/22 13:22:08;;;;;;;66.17;32.17;;;9.10;57.80;;;;;;5083378;27;46707;-67
2022/11/22 13:25:05;;;;;;;16.03;3.60;;;9.10;56.80;;;;;;5084669;27;46380;-66